Time;durP1;ratioP1;P1;durP2;ratioP2;P2;SDS_P1;SDS_P2;PMS_P1;PMS_P2;Temp;Humidity;BMP_temperature;BMP_pressure;BME280_temperature;BME280_humidity;BME280_pressure;Samples;Min_cycle;Max_cycle;Signal;HPM_P1;HPM_P2
2022/12/29 00:02:24;;;;;;;7.38;6.78;;;;;;;;;;4973778;28;20033;-79
2022/12/29 00:04:50;;;;;;;7.90;7.18;;;;;;;;;;4981175;28;20042;-79
2022/12/29 00:07:16;;;;;;;6.95;6.40;;;;;;;;;;4977461;28;20053;-79
2022/12/29 00:09:42;;;;;;;7.38;6.85;;;;;;;;;;4979249;28;20080;-79
2022/12/29 00:12:07;;;;;;;6.70;6.10;;;;;;;;;;4978902;28;20034;-79
2022/12/29 00:17:17;;;;;;;6.57;6.10;;;;;;;;;;4972270;28;20035;-79
2022/12/29 00:36:26;;;;;;;6.85;6.28;;;;;;;;;;4965351;28;20031;-79
2022/12/29 00:44:25;;;;;;;6.25;5.85;;;;;;;;;;4979208;28;20053;-78
2022/12/29 00:46:50;;;;;;;7.35;6.85;;;;;;;;;;4977501;28;20426;-79
2022/12/29 00:49:31;;;;;;;7.82;7.13;;;;;;;;;;4975869;28;20095;-79
2022/12/29 00:52:00;;;;;;;9.60;6.88;;;;;;;;;;4971897;28;20042;-79
2022/12/29 00:54:27;;;;;;;8.18;7.18;;;;;;;;;;4981542;28;20094;-79
2022/12/29 00:56:53;;;;;;;7.50;6.85;;;;;;;;;;4982284;28;20034;-79
2022/12/29 00:59:19;;;;;;;8.05;7.35;;;;;;;;;;4982328;28;20073;-79
2022/12/29 01:01:45;;;;;;;7.18;6.57;;;;;;;;;;4973940;28;20121;-78
2022/12/29 01:04:11;;;;;;;8.07;7.00;;;;;;;;;;4970575;28;20035;-78
2022/12/29 01:06:39;;;;;;;7.15;6.20;;;;;;;;;;4997344;28;20088;-79
2022/12/29 01:11:50;;;;;;;7.47;6.80;;;;;;;;;;4978964;28;20074;-79
2022/12/29 01:14:17;;;;;;;7.55;6.78;;;;;;;;;;4973853;28;20070;-79
2022/12/29 01:16:42;;;;;;;6.50;6.00;;;;;;;;;;4971611;28;20154;-79
2022/12/29 01:19:08;;;;;;;6.80;6.40;;;;;;;;;;4973677;28;20034;-79
2022/12/29 01:21:34;;;;;;;7.60;6.97;;;;;;;;;;4980155;28;20072;-79
2022/12/29 01:23:59;;;;;;;6.72;6.20;;;;;;;;;;4975229;28;20030;-79
2022/12/29 01:26:25;;;;;;;7.68;6.28;;;;;;;;;;4973206;28;20038;-79
2022/12/29 01:28:51;;;;;;;6.50;6.10;;;;;;;;;;4976631;28;20042;-79
2022/12/29 01:31:16;;;;;;;6.95;6.35;;;;;;;;;;4981934;28;20092;-79
2022/12/29 01:33:42;;;;;;;6.90;6.40;;;;;;;;;;4975750;28;20443;-79
2022/12/29 01:36:12;;;;;;;6.88;6.38;;;;;;;;;;4966350;28;20065;-79
2022/12/29 01:38:38;;;;;;;6.68;6.13;;;;;;;;;;4971243;28;20038;-79
2022/12/29 01:41:05;;;;;;;8.07;6.40;;;;;;;;;;4976565;28;20053;-79
2022/12/29 01:43:48;;;;;;;8.13;6.32;;;;;;;;;;4981914;28;20034;-79
2022/12/29 01:46:25;;;;;;;6.75;6.15;;;;;;;;;;4971399;28;20038;-79
2022/12/29 01:49:08;;;;;;;6.72;6.22;;;;;;;;;;4980989;28;20106;-79
2022/12/29 01:51:43;;;;;;;6.72;6.13;;;;;;;;;;4980457;28;20074;-79
2022/12/29 01:54:13;;;;;;;7.07;6.05;;;;;;;;;;4970029;28;20065;-79
2022/12/29 01:56:39;;;;;;;6.20;5.80;;;;;;;;;;4978228;28;20490;-79
2022/12/29 01:59:12;;;;;;;6.90;6.40;;;;;;;;;;4971484;28;20034;-79
2022/12/29 02:01:38;;;;;;;6.28;5.88;;;;;;;;;;4972865;28;20809;-79
2022/12/29 02:04:04;;;;;;;6.47;6.05;;;;;;;;;;4974886;28;20043;-79
2022/12/29 02:06:36;;;;;;;6.20;5.80;;;;;;;;;;4979654;28;20073;-78
2022/12/29 02:09:01;;;;;;;6.53;6.13;;;;;;;;;;4979886;28;20157;-78
2022/12/29 02:11:28;;;;;;;6.45;5.97;;;;;;;;;;4971925;28;20077;-78
2022/12/29 02:13:54;;;;;;;6.40;6.00;;;;;;;;;;4976979;28;20034;-78
2022/12/29 02:16:31;;;;;;;6.90;6.40;;;;;;;;;;4975884;28;20034;-78
2022/12/29 02:19:35;;;;;;;7.15;6.10;;;;;;;;;;4969391;28;20046;-78
2022/12/29 02:22:26;;;;;;;6.68;6.10;;;;;;;;;;4971221;28;20172;-78
2022/12/29 02:25:09;;;;;;;6.25;5.85;;;;;;;;;;4984326;28;20156;-79
2022/12/29 02:27:57;;;;;;;6.85;6.30;;;;;;;;;;4960502;28;20122;-78
2022/12/29 02:30:58;;;;;;;6.97;6.40;;;;;;;;;;4986611;28;20403;-78
2022/12/29 02:34:01;;;;;;;6.50;6.10;;;;;;;;;;4985286;28;20034;-78
2022/12/29 02:36:42;;;;;;;7.13;6.43;;;;;;;;;;4961392;28;20027;-78
2022/12/29 02:39:50;;;;;;;6.38;5.97;;;;;;;;;;4970305;28;20039;-78
2022/12/29 02:42:42;;;;;;;6.15;5.78;;;;;;;;;;4995138;28;20062;-78
2022/12/29 02:45:32;;;;;;;7.35;6.75;;;;;;;;;;4942890;28;20047;-78
2022/12/29 02:48:09;;;;;;;6.82;6.38;;;;;;;;;;4971783;28;20057;-78
2022/12/29 02:50:39;;;;;;;6.28;5.85;;;;;;;;;;4973375;28;20526;-78
2022/12/29 02:53:09;;;;;;;6.75;6.20;;;;;;;;;;4968956;28;20095;-78
2022/12/29 02:55:35;;;;;;;6.30;5.90;;;;;;;;;;4973910;28;20043;-78
2022/12/29 02:58:18;;;;;;;6.40;6.00;;;;;;;;;;4978821;28;20034;-78
2022/12/29 03:01:12;;;;;;;6.07;5.63;;;;;;;;;;4990419;28;20038;-78
2022/12/29 03:03:56;;;;;;;6.32;5.90;;;;;;;;;;4970205;28;20037;-78
2022/12/29 03:06:51;;;;;;;6.43;6.00;;;;;;;;;;4988858;28;20031;-78
2022/12/29 03:09:43;;;;;;;6.20;5.80;;;;;;;;;;4977898;28;20509;-78
2022/12/29 03:18:15;;;;;;;6.45;6.05;;;;;;;;;;4973184;28;20098;-79
2022/12/29 03:20:54;;;;;;;6.03;5.72;;;;;;;;;;4973662;28;20051;-78
2022/12/29 03:23:23;;;;;;;6.22;5.65;;;;;;;;;;4975275;28;20026;-78
2022/12/29 03:25:57;;;;;;;6.65;6.15;;;;;;;;;;4979849;28;20066;-78
2022/12/29 03:28:31;;;;;;;6.20;5.80;;;;;;;;;;4974646;28;20717;-78
2022/12/29 03:30:58;;;;;;;6.30;5.90;;;;;;;;;;4974858;28;20114;-78
2022/12/29 03:33:28;;;;;;;6.88;6.40;;;;;;;;;;4972071;28;20110;-77
2022/12/29 03:35:59;;;;;;;6.72;6.18;;;;;;;;;;4969244;28;20073;-78
2022/12/29 03:38:39;;;;;;;6.85;6.45;;;;;;;;;;4973800;28;20038;-77
2022/12/29 03:41:16;;;;;;;6.70;6.07;;;;;;;;;;4973041;28;20038;-78
2022/12/29 03:43:42;;;;;;;6.45;5.97;;;;;;;;;;4952593;28;20122;-78
2022/12/29 03:46:08;;;;;;;6.63;6.00;;;;;;;;;;4973315;28;20549;-78
2022/12/29 03:48:35;;;;;;;6.60;6.20;;;;;;;;;;4974849;28;20406;-78
2022/12/29 03:51:00;;;;;;;6.07;5.78;;;;;;;;;;4977930;28;20034;-78
2022/12/29 03:53:27;;;;;;;5.80;5.50;;;;;;;;;;4977705;28;20046;-78
2022/12/29 03:55:52;;;;;;;6.10;5.80;;;;;;;;;;4982838;28;20051;-79
2022/12/29 03:58:18;;;;;;;5.88;5.47;;;;;;;;;;4963860;28;20031;-78
2022/12/29 04:01:06;;;;;;;6.70;5.53;;;;;;;;;;4927302;29;20050;-78
2022/12/29 04:03:35;;;;;;;6.90;6.40;;;;;;;;;;4930511;29;20115;-78
2022/12/29 04:06:01;;;;;;;6.95;6.28;;;;;;;;;;4919817;29;20055;-78
2022/12/29 04:08:34;;;;;;;6.47;6.07;;;;;;;;;;4919003;29;20067;-78
2022/12/29 04:10:59;;;;;;;6.75;6.35;;;;;;;;;;4934064;29;20106;-78
2022/12/29 04:13:26;;;;;;;6.40;5.90;;;;;;;;;;4915959;29;20111;-78
2022/12/29 04:15:51;;;;;;;6.85;6.35;;;;;;;;;;4935834;29;20047;-78
2022/12/29 04:18:17;;;;;;;7.15;5.88;;;;;;;;;;4935897;29;20172;-78
2022/12/29 04:21:00;;;;;;;6.45;6.00;;;;;;;;;;4940694;29;20189;-78
2022/12/29 04:23:27;;;;;;;6.68;6.15;;;;;;;;;;4918255;29;20043;-78
2022/12/29 04:25:53;;;;;;;6.65;6.18;;;;;;;;;;4922032;29;20056;-78
2022/12/29 04:28:19;;;;;;;6.45;6.00;;;;;;;;;;4926564;29;20095;-78
2022/12/29 04:30:45;;;;;;;6.72;6.22;;;;;;;;;;4941465;29;20746;-78
2022/12/29 04:33:16;;;;;;;6.75;6.25;;;;;;;;;;4937355;29;20086;-78
2022/12/29 04:35:43;;;;;;;6.85;6.20;;;;;;;;;;4928247;29;20052;-78
2022/12/29 04:38:10;;;;;;;6.38;5.88;;;;;;;;;;4964703;28;20046;-78
2022/12/29 04:40:38;;;;;;;6.47;5.88;;;;;;;;;;4979063;28;20110;-78
2022/12/29 04:43:04;;;;;;;7.15;6.65;;;;;;;;;;4965930;28;20584;-78
2022/12/29 04:45:33;;;;;;;7.05;6.65;;;;;;;;;;4971368;28;20042;-78
2022/12/29 04:48:20;;;;;;;6.75;6.13;;;;;;;;;;4984535;28;20031;-78
2022/12/29 04:51:04;;;;;;;6.55;6.15;;;;;;;;;;4975458;28;20045;-78
2022/12/29 04:53:36;;;;;;;7.50;7.00;;;;;;;;;;4966688;28;20040;-78
2022/12/29 04:56:02;;;;;;;6.80;6.25;;;;;;;;;;4973214;28;20038;-78
2022/12/29 04:58:27;;;;;;;6.90;6.38;;;;;;;;;;4980401;28;20042;-78
2022/12/29 05:00:53;;;;;;;7.00;6.30;;;;;;;;;;4979651;28;20045;-79
2022/12/29 05:03:22;;;;;;;7.40;6.80;;;;;;;;;;4968950;28;20062;-78
2022/12/29 05:05:48;;;;;;;8.40;6.70;;;;;;;;;;4980988;28;20042;-78
2022/12/29 05:08:14;;;;;;;7.00;6.60;;;;;;;;;;4975093;28;20031;-78
2022/12/29 05:10:44;;;;;;;6.55;6.20;;;;;;;;;;4979569;28;20708;-78
2022/12/29 05:13:11;;;;;;;7.70;6.95;;;;;;;;;;4992973;28;20045;-78
2022/12/29 05:15:37;;;;;;;6.75;6.25;;;;;;;;;;4974611;28;20035;-78
2022/12/29 05:18:03;;;;;;;6.80;6.30;;;;;;;;;;4974243;28;20046;-78
2022/12/29 05:20:28;;;;;;;7.15;6.20;;;;;;;;;;4974744;28;20049;-78
2022/12/29 05:22:56;;;;;;;6.80;6.22;;;;;;;;;;4965721;28;20045;-78
2022/12/29 05:25:22;;;;;;;6.70;6.15;;;;;;;;;;4978724;28;20042;-78
2022/12/29 05:28:04;;;;;;;7.38;6.32;;;;;;;;;;4980795;28;20034;-78
2022/12/29 05:30:48;;;;;;;6.65;6.15;;;;;;;;;;4977478;28;20070;-78
2022/12/29 05:33:14;;;;;;;6.78;6.20;;;;;;;;;;4967375;28;20038;-78
2022/12/29 05:35:40;;;;;;;6.85;6.30;;;;;;;;;;4972615;28;20054;-78
2022/12/29 05:38:06;;;;;;;7.10;6.63;;;;;;;;;;4975942;28;20031;-78
2022/12/29 05:40:32;;;;;;;7.63;7.03;;;;;;;;;;4987129;28;20053;-78
2022/12/29 05:43:02;;;;;;;7.22;6.72;;;;;;;;;;4970487;28;20041;-78
2022/12/29 05:45:35;;;;;;;7.20;6.60;;;;;;;;;;4971834;28;20054;-78
2022/12/29 05:48:21;;;;;;;7.45;6.68;;;;;;;;;;4975852;28;20045;-78
2022/12/29 05:51:05;;;;;;;8.27;7.60;;;;;;;;;;4970602;28;20042;-78
2022/12/29 05:53:39;;;;;;;7.90;7.32;;;;;;;;;;4979990;28;20048;-78
2022/12/29 05:56:05;;;;;;;8.48;7.68;;;;;;;;;;4981368;28;20090;-78
2022/12/29 05:58:31;;;;;;;8.13;7.35;;;;;;;;;;4974404;28;20120;-78
2022/12/29 06:00:57;;;;;;;9.02;8.23;;;;;;;;;;4970265;28;20038;-78
2022/12/29 06:03:23;;;;;;;7.78;7.28;;;;;;;;;;4973216;28;20483;-78
2022/12/29 06:05:48;;;;;;;6.68;6.22;;;;;;;;;;4967991;28;20039;-78
2022/12/29 06:08:15;;;;;;;7.45;6.95;;;;;;;;;;4973647;28;20049;-78
2022/12/29 06:10:41;;;;;;;7.45;6.78;;;;;;;;;;4973824;28;20031;-77
2022/12/29 06:13:07;;;;;;;6.30;6.00;;;;;;;;;;4974372;28;20038;-78
2022/12/29 06:15:39;;;;;;;6.80;6.40;;;;;;;;;;4971096;28;20501;-78
2022/12/29 06:18:07;;;;;;;7.03;6.53;;;;;;;;;;4970184;28;20031;-78
2022/12/29 06:20:33;;;;;;;7.50;7.00;;;;;;;;;;4959839;28;20038;-78
2022/12/29 06:23:01;;;;;;;6.95;6.55;;;;;;;;;;4969445;28;20047;-78
2022/12/29 06:25:30;;;;;;;7.03;6.57;;;;;;;;;;4976627;28;20034;-78
2022/12/29 06:27:56;;;;;;;7.10;6.40;;;;;;;;;;4975303;28;20031;-78
2022/12/29 06:30:21;;;;;;;6.88;6.47;;;;;;;;;;4982619;28;20500;-78
2022/12/29 06:32:47;;;;;;;7.35;6.60;;;;;;;;;;4973007;28;20054;-78
2022/12/29 06:35:13;;;;;;;7.07;6.40;;;;;;;;;;4970959;28;20070;-78
2022/12/29 06:37:44;;;;;;;7.32;6.82;;;;;;;;;;4976996;28;20140;-78
2022/12/29 06:40:11;;;;;;;6.93;6.53;;;;;;;;;;4971153;28;20118;-78
2022/12/29 06:42:54;;;;;;;7.10;6.70;;;;;;;;;;4973092;28;20039;-78
2022/12/29 06:45:39;;;;;;;7.32;6.82;;;;;;;;;;4993464;28;20042;-78
2022/12/29 06:48:05;;;;;;;10.60;6.85;;;;;;;;;;4997220;28;20034;-78
2022/12/29 06:50:31;;;;;;;7.10;6.50;;;;;;;;;;4994200;28;20052;-78
2022/12/29 06:52:56;;;;;;;6.70;6.30;;;;;;;;;;4996837;28;20053;-79
2022/12/29 06:55:22;;;;;;;7.10;6.60;;;;;;;;;;4997112;28;20030;-79
2022/12/29 06:57:48;;;;;;;7.32;6.72;;;;;;;;;;5004158;28;20118;-78
2022/12/29 07:00:13;;;;;;;7.75;7.25;;;;;;;;;;4998420;28;20030;-79
2022/12/29 07:02:39;;;;;;;7.10;6.65;;;;;;;;;;4990950;28;20070;-78
2022/12/29 07:05:05;;;;;;;7.50;7.00;;;;;;;;;;5005438;28;20036;-78
2022/12/29 07:07:30;;;;;;;7.63;7.03;;;;;;;;;;4992855;28;20040;-78
2022/12/29 07:09:56;;;;;;;6.97;6.47;;;;;;;;;;4993431;28;20057;-78
2022/12/29 07:12:21;;;;;;;7.25;6.75;;;;;;;;;;5001574;28;20025;-78
2022/12/29 07:14:47;;;;;;;6.90;6.40;;;;;;;;;;4987769;28;20036;-78
2022/12/29 07:17:12;;;;;;;6.70;6.30;;;;;;;;;;5002827;28;20031;-78
2022/12/29 07:19:38;;;;;;;7.50;7.00;;;;;;;;;;4998197;28;20464;-78
2022/12/29 07:22:03;;;;;;;7.60;7.10;;;;;;;;;;4992157;28;20097;-78
2022/12/29 07:24:29;;;;;;;8.15;6.95;;;;;;;;;;4994032;28;20039;-78
2022/12/29 07:26:55;;;;;;;7.75;7.15;;;;;;;;;;4996793;28;20034;-78
2022/12/29 07:29:20;;;;;;;7.80;7.30;;;;;;;;;;4998404;28;20042;-78
2022/12/29 07:31:46;;;;;;;7.35;6.65;;;;;;;;;;4987847;28;20062;-78
2022/12/29 07:34:11;;;;;;;7.15;6.65;;;;;;;;;;4998828;28;20034;-78
2022/12/29 07:36:37;;;;;;;7.80;7.10;;;;;;;;;;4994541;28;20099;-78
2022/12/29 07:39:03;;;;;;;7.70;7.10;;;;;;;;;;4989532;28;20039;-78
2022/12/29 07:41:28;;;;;;;7.55;6.82;;;;;;;;;;4992690;28;20035;-78
2022/12/29 07:43:54;;;;;;;7.55;7.07;;;;;;;;;;4993204;28;20034;-78
2022/12/29 07:46:51;;;;;;;6.95;6.55;;;;;;;;;;4990377;28;20097;-78
2022/12/29 07:49:17;;;;;;;7.15;6.65;;;;;;;;;;4983504;28;20035;-78
2022/12/29 07:51:43;;;;;;;7.25;6.85;;;;;;;;;;4990876;28;20034;-78
2022/12/29 07:54:09;;;;;;;6.90;6.40;;;;;;;;;;4995278;28;20034;-78
2022/12/29 07:56:34;;;;;;;7.38;6.88;;;;;;;;;;4995643;28;20034;-78
2022/12/29 07:59:00;;;;;;;7.22;6.72;;;;;;;;;;4991481;28;20082;-78
2022/12/29 08:01:25;;;;;;;8.13;7.32;;;;;;;;;;4997833;28;20036;-78
2022/12/29 08:03:51;;;;;;;7.47;6.88;;;;;;;;;;4992869;28;20038;-78
2022/12/29 08:06:16;;;;;;;6.95;6.55;;;;;;;;;;4993113;28;20297;-78
2022/12/29 08:08:42;;;;;;;7.30;6.80;;;;;;;;;;4999328;28;20659;-78
2022/12/29 08:11:07;;;;;;;7.15;6.65;;;;;;;;;;4993800;28;20494;-78
2022/12/29 08:13:33;;;;;;;7.38;6.78;;;;;;;;;;4991344;28;20038;-78
2022/12/29 08:15:59;;;;;;;7.18;6.68;;;;;;;;;;4994784;28;20034;-78
2022/12/29 08:18:25;;;;;;;7.50;6.80;;;;;;;;;;4991212;28;20047;-78
2022/12/29 08:20:50;;;;;;;8.23;7.30;;;;;;;;;;4991867;28;20033;-77
2022/12/29 08:23:16;;;;;;;7.75;7.15;;;;;;;;;;4992504;28;20030;-77
2022/12/29 08:25:41;;;;;;;10.05;6.70;;;;;;;;;;4994937;28;20133;-78
2022/12/29 08:28:07;;;;;;;7.05;6.65;;;;;;;;;;4995779;28;20141;-78
2022/12/29 08:30:32;;;;;;;7.53;7.03;;;;;;;;;;4996488;28;20053;-79
2022/12/29 08:32:58;;;;;;;7.38;6.93;;;;;;;;;;5001671;28;20034;-78
2022/12/29 08:35:23;;;;;;;7.75;7.15;;;;;;;;;;4999126;28;20038;-78
2022/12/29 08:37:49;;;;;;;7.30;6.75;;;;;;;;;;4993846;28;20035;-78
2022/12/29 08:40:15;;;;;;;7.40;6.90;;;;;;;;;;5002152;28;20029;-79
2022/12/29 08:42:40;;;;;;;7.80;7.30;;;;;;;;;;5001588;28;20044;-78
2022/12/29 08:45:08;;;;;;;7.60;7.13;;;;;;;;;;4994956;28;20050;-78
2022/12/29 08:47:34;;;;;;;7.70;6.95;;;;;;;;;;4996107;28;20050;-78
2022/12/29 08:49:59;;;;;;;7.25;6.80;;;;;;;;;;4992282;28;20059;-77
2022/12/29 08:52:25;;;;;;;7.53;6.93;;;;;;;;;;4992745;28;20058;-78
2022/12/29 08:54:50;;;;;;;7.22;6.57;;;;;;;;;;4993282;28;20093;-78
2022/12/29 08:57:16;;;;;;;7.22;6.72;;;;;;;;;;4981319;28;20485;-78
2022/12/29 09:00:03;;;;;;;8.00;7.20;;;;;;;;;;4989315;28;20065;-78
2022/12/29 09:02:28;;;;;;;7.45;6.85;;;;;;;;;;4992669;28;20428;-78
2022/12/29 09:04:54;;;;;;;6.90;6.50;;;;;;;;;;4991425;28;20034;-78
2022/12/29 09:07:20;;;;;;;7.32;6.82;;;;;;;;;;4987777;28;20046;-78
2022/12/29 09:09:45;;;;;;;7.50;7.03;;;;;;;;;;4989715;28;20426;-78
2022/12/29 09:12:11;;;;;;;7.28;6.78;;;;;;;;;;4987980;28;20391;-78
2022/12/29 09:14:36;;;;;;;7.00;6.60;;;;;;;;;;4987940;28;20087;-78
2022/12/29 09:19:46;;;;;;;7.53;7.03;;;;;;;;;;4989698;28;20043;-78
2022/12/29 09:22:12;;;;;;;7.43;6.97;;;;;;;;;;4989224;28;20046;-78
2022/12/29 09:24:37;;;;;;;7.57;6.97;;;;;;;;;;4992779;28;20050;-78
2022/12/29 09:27:03;;;;;;;7.80;7.22;;;;;;;;;;4994732;28;20391;-78
2022/12/29 09:29:28;;;;;;;7.82;7.22;;;;;;;;;;4990088;28;20033;-78
2022/12/29 09:31:54;;;;;;;7.07;6.60;;;;;;;;;;4990552;28;20113;-78
2022/12/29 09:34:20;;;;;;;7.55;6.88;;;;;;;;;;4997496;28;20544;-78
2022/12/29 09:36:45;;;;;;;7.18;6.70;;;;;;;;;;4992862;28;20184;-78
2022/12/29 09:39:12;;;;;;;7.45;6.78;;;;;;;;;;4991339;28;20084;-78
2022/12/29 09:41:58;;;;;;;7.47;7.07;;;;;;;;;;4992518;28;20045;-81
2022/12/29 09:45:02;;;;;;;7.43;6.82;;;;;;;;;;4992573;28;20030;-79
2022/12/29 09:47:28;;;;;;;7.95;7.40;;;;;;;;;;4989846;28;20033;-78
2022/12/29 09:50:02;;;;;;;7.68;7.15;;;;;;;;;;4992369;28;20065;-78
2022/12/29 09:52:36;;;;;;;7.85;7.10;;;;;;;;;;4993883;28;20038;-79
2022/12/29 09:55:09;;;;;;;7.75;7.05;;;;;;;;;;4990234;28;20029;-77
2022/12/29 09:57:57;;;;;;;7.85;7.35;;;;;;;;;;4993654;28;20042;-77
2022/12/29 10:00:35;;;;;;;7.47;7.03;;;;;;;;;;4989624;28;20555;-78
2022/12/29 10:03:09;;;;;;;7.43;6.82;;;;;;;;;;4996838;28;20336;-77
2022/12/29 10:06:00;;;;;;;7.78;7.00;;;;;;;;;;4990558;28;20106;-77
2022/12/29 10:08:39;;;;;;;7.53;7.03;;;;;;;;;;4992341;28;20057;-77
2022/12/29 10:11:26;;;;;;;7.10;6.60;;;;;;;;;;5003504;28;20422;-78
2022/12/29 10:14:07;;;;;;;7.47;6.90;;;;;;;;;;4988802;28;20087;-77
2022/12/29 10:16:43;;;;;;;7.53;6.82;;;;;;;;;;4991841;28;20449;-77
2022/12/29 10:19:44;;;;;;;8.02;7.43;;;;;;;;;;4996470;28;20117;-77
2022/12/29 10:22:42;;;;;;;7.95;7.35;;;;;;;;;;4950247;28;20047;-78
2022/12/29 10:25:19;;;;;;;7.88;7.18;;;;;;;;;;4937992;28;20070;-78
2022/12/29 10:27:48;;;;;;;7.13;6.68;;;;;;;;;;4954755;28;20582;-77
2022/12/29 10:30:14;;;;;;;;;;;;;;;;;;4957486;28;20074;-78
2022/12/29 10:32:49;;;;;;;7.07;6.43;;;;;;;;;;4951549;28;19918;-77
2022/12/29 10:35:23;;;;;;;6.90;6.50;;;;;;;;;;4951003;28;20459;-78
2022/12/29 10:38:02;;;;;;;6.60;6.20;;;;;;;;;;4952128;28;20043;-77
2022/12/29 10:40:42;;;;;;;7.30;6.80;;;;;;;;;;4951953;28;20030;-77
2022/12/29 10:43:24;;;;;;;7.75;7.13;;;;;;;;;;4951677;28;20067;-77
2022/12/29 10:45:52;;;;;;;7.30;6.80;;;;;;;;;;4949858;28;20047;-77
2022/12/29 10:48:34;;;;;;;6.70;6.20;;;;;;;;;;4937720;28;20435;-77
2022/12/29 10:51:03;;;;;;;7.35;6.63;;;;;;;;;;4955671;28;20163;-78
2022/12/29 10:53:48;;;;;;;7.50;7.00;;;;;;;;;;4951709;28;20138;-78
2022/12/29 10:56:37;;;;;;;7.13;6.63;;;;;;;;;;4971799;28;20178;-78
2022/12/29 10:59:23;;;;;;;7.32;6.93;;;;;;;;;;4994241;28;20072;-78
2022/12/29 11:02:10;;;;;;;7.07;6.57;;;;;;;;;;4992242;28;20046;-77
2022/12/29 11:04:49;;;;;;;7.40;6.90;;;;;;;;;;4993086;28;20055;-77
2022/12/29 11:07:20;;;;;;;7.80;7.28;;;;;;;;;;4989586;28;20498;-77
2022/12/29 11:09:46;;;;;;;8.43;7.75;;;;;;;;;;4993613;28;20046;-77
2022/12/29 11:12:25;;;;;;;6.90;6.45;;;;;;;;;;4997480;28;20030;-77
2022/12/29 11:15:09;;;;;;;7.25;6.80;;;;;;;;;;4992220;28;20553;-77
2022/12/29 11:17:43;;;;;;;7.60;7.15;;;;;;;;;;4994934;28;20077;-77
2022/12/29 11:20:38;;;;;;;7.38;6.80;;;;;;;;;;4995925;28;20625;-77
2022/12/29 11:23:21;;;;;;;7.20;6.60;;;;;;;;;;4992825;28;20054;-77
2022/12/29 11:26:10;;;;;;;7.65;6.88;;;;;;;;;;4993262;28;20515;-77
2022/12/29 11:28:43;;;;;;;7.35;6.85;;;;;;;;;;4989659;28;20050;-77
2022/12/29 11:31:10;;;;;;;7.18;6.68;;;;;;;;;;4994110;28;20106;-77
2022/12/29 11:33:37;;;;;;;6.82;6.38;;;;;;;;;;4998739;28;20040;-77
2022/12/29 11:36:10;;;;;;;6.80;6.40;;;;;;;;;;4994522;28;20058;-78
2022/12/29 11:38:55;;;;;;;7.63;7.13;;;;;;;;;;4999657;28;20079;-77
2022/12/29 11:41:24;;;;;;;7.40;6.90;;;;;;;;;;4992064;28;20041;-77
2022/12/29 11:43:51;;;;;;;6.82;6.30;;;;;;;;;;4994226;28;21062;-77
2022/12/29 11:46:22;;;;;;;7.28;6.68;;;;;;;;;;4998864;28;20374;-77
2022/12/29 11:48:48;;;;;;;8.60;6.30;;;;;;;;;;4995430;28;20038;-77
2022/12/29 11:51:23;;;;;;;7.30;6.75;;;;;;;;;;4992574;28;20053;-77
2022/12/29 11:53:53;;;;;;;7.28;6.68;;;;;;;;;;5001035;28;20033;-77
2022/12/29 11:56:38;;;;;;;7.32;6.82;;;;;;;;;;4996367;28;20114;-77
2022/12/29 11:59:36;;;;;;;7.50;7.10;;;;;;;;;;4993472;28;20497;-78
2022/12/29 12:02:18;;;;;;;7.82;7.25;;;;;;;;;;5004052;28;20030;-78
2022/12/29 12:04:44;;;;;;;7.65;7.15;;;;;;;;;;5001756;28;20030;-77
2022/12/29 12:07:15;;;;;;;7.13;6.63;;;;;;;;;;4996742;28;20048;-77
2022/12/29 12:09:49;;;;;;;7.38;6.88;;;;;;;;;;4991759;28;20092;-77
2022/12/29 12:12:30;;;;;;;7.15;6.65;;;;;;;;;;4996403;28;20035;-77
2022/12/29 12:14:59;;;;;;;8.50;7.72;;;;;;;;;;4991012;28;20040;-77
2022/12/29 12:18:05;;;;;;;7.43;6.93;;;;;;;;;;4992059;28;20034;-78
2022/12/29 12:21:00;;;;;;;7.38;6.88;;;;;;;;;;4996479;28;20138;-78
2022/12/29 12:23:44;;;;;;;7.90;7.22;;;;;;;;;;4992506;28;20058;-77
2022/12/29 12:26:13;;;;;;;8.00;7.40;;;;;;;;;;5000148;28;20054;-77
2022/12/29 12:28:47;;;;;;;7.28;6.57;;;;;;;;;;4994200;28;20057;-80
2022/12/29 12:31:42;;;;;;;8.00;7.40;;;;;;;;;;4991400;28;20062;-79
2022/12/29 12:34:17;;;;;;;6.53;6.10;;;;;;;;;;4997084;28;20034;-77
2022/12/29 12:37:06;;;;;;;7.75;7.25;;;;;;;;;;5009255;28;20042;-78
2022/12/29 12:40:00;;;;;;;7.47;7.00;;;;;;;;;;4989022;28;20504;-78
2022/12/29 12:42:58;;;;;;;8.35;7.72;;;;;;;;;;4980944;28;20034;-78
2022/12/29 12:45:23;;;;;;;8.00;7.40;;;;;;;;;;4991795;28;20025;-78
2022/12/29 12:48:04;;;;;;;8.13;7.45;;;;;;;;;;5000243;28;20046;-78
2022/12/29 12:50:56;;;;;;;7.72;7.22;;;;;;;;;;4996039;28;20145;-79
2022/12/29 12:53:40;;;;;;;8.40;7.90;;;;;;;;;;4995040;28;20382;-79
2022/12/29 12:56:09;;;;;;;8.52;7.82;;;;;;;;;;4992423;28;20097;-79
2022/12/29 12:58:56;;;;;;;8.20;7.70;;;;;;;;;;4995317;28;20394;-79
2022/12/29 13:01:41;;;;;;;8.13;7.55;;;;;;;;;;4997771;28;20087;-79
2022/12/29 13:04:19;;;;;;;7.65;7.07;;;;;;;;;;4993449;28;20043;-79
2022/12/29 13:06:57;;;;;;;7.78;7.03;;;;;;;;;;4985165;28;20047;-79
2022/12/29 13:09:38;;;;;;;7.93;7.32;;;;;;;;;;4994857;28;20037;-79
2022/12/29 13:12:34;;;;;;;7.45;7.05;;;;;;;;;;4990047;28;20070;-79
2022/12/29 13:15:08;;;;;;;8.20;7.60;;;;;;;;;;4991244;28;20047;-79
2022/12/29 13:17:59;;;;;;;7.47;7.07;;;;;;;;;;4990886;28;20030;-79
2022/12/29 13:20:46;;;;;;;8.02;7.43;;;;;;;;;;4995806;28;20093;-79
2022/12/29 13:23:40;;;;;;;8.63;7.85;;;;;;;;;;4989278;28;20039;-78
2022/12/29 13:26:32;;;;;;;7.57;6.97;;;;;;;;;;4993124;28;20065;-79
2022/12/29 13:29:16;;;;;;;7.82;7.32;;;;;;;;;;5000494;28;20034;-79
2022/12/29 13:31:55;;;;;;;7.70;7.20;;;;;;;;;;4991164;28;20112;-79
2022/12/29 13:34:47;;;;;;;8.68;7.97;;;;;;;;;;4997907;28;20124;-79
2022/12/29 13:37:16;;;;;;;7.82;7.40;;;;;;;;;;4994509;28;20552;-78
2022/12/29 13:39:48;;;;;;;8.52;7.70;;;;;;;;;;4996983;28;20153;-78
2022/12/29 13:42:17;;;;;;;8.35;7.85;;;;;;;;;;4996126;28;20069;-78
2022/12/29 13:44:53;;;;;;;8.30;7.80;;;;;;;;;;4994676;28;20568;-78
2022/12/29 13:47:33;;;;;;;7.70;7.30;;;;;;;;;;4986770;28;20703;-78
2022/12/29 13:50:01;;;;;;;8.93;8.13;;;;;;;;;;4992279;28;20038;-77
2022/12/29 13:52:45;;;;;;;8.68;7.95;;;;;;;;;;4983914;28;20089;-78
2022/12/29 13:55:55;;;;;;;8.50;8.00;;;;;;;;;;4989783;28;20042;-78
2022/12/29 13:58:24;;;;;;;8.70;7.90;;;;;;;;;;4989068;28;20051;-78
2022/12/29 14:01:17;;;;;;;8.48;7.72;;;;;;;;;;4990787;28;20041;-78
2022/12/29 14:03:53;;;;;;;8.10;7.60;;;;;;;;;;4995953;28;20521;-78
2022/12/29 14:06:22;;;;;;;7.82;7.32;;;;;;;;;;4985962;28;20648;-78
2022/12/29 14:08:48;;;;;;;9.48;7.90;;;;;;;;;;4969041;28;20046;-80
2022/12/29 14:11:17;;;;;;;8.68;8.07;;;;;;;;;;4987947;28;20064;-78
2022/12/29 14:13:45;;;;;;;8.07;7.47;;;;;;;;;;4991055;28;20045;-78
2022/12/29 14:16:29;;;;;;;10.00;9.00;;;;;;;;;;4985561;28;20043;-78
2022/12/29 14:18:57;;;;;;;8.27;7.68;;;;;;;;;;4996697;28;20029;-78
2022/12/29 14:21:28;;;;;;;8.40;7.70;;;;;;;;;;5006007;28;20117;-78
2022/12/29 14:23:54;;;;;;;8.30;7.60;;;;;;;;;;4993211;28;20510;-77
2022/12/29 14:26:31;;;;;;;8.60;7.63;;;;;;;;;;4989123;28;20188;-78
2022/12/29 14:29:35;;;;;;;8.63;8.02;;;;;;;;;;4990938;28;20038;-77
2022/12/29 14:32:01;;;;;;;8.60;7.90;;;;;;;;;;4996173;28;20108;-78
2022/12/29 14:34:29;;;;;;;8.63;7.93;;;;;;;;;;4985570;28;20050;-78
2022/12/29 14:36:58;;;;;;;8.32;7.72;;;;;;;;;;4990850;28;20030;-78
2022/12/29 14:39:44;;;;;;;8.90;8.15;;;;;;;;;;4993257;28;20504;-78
2022/12/29 14:42:09;;;;;;;12.70;11.27;;;;;;;;;;4999157;28;20477;-77
2022/12/29 14:45:01;;;;;;;9.30;8.60;;;;;;;;;;4989865;28;20668;-77
2022/12/29 14:47:40;;;;;;;16.27;12.48;;;;;;;;;;4992886;28;20105;-78
2022/12/29 14:50:13;;;;;;;8.80;8.10;;;;;;;;;;4987292;28;20035;-78
2022/12/29 14:53:06;;;;;;;8.65;7.95;;;;;;;;;;4994429;28;20121;-77
2022/12/29 14:55:54;;;;;;;7.95;7.45;;;;;;;;;;4994376;28;20084;-77
2022/12/29 14:58:28;;;;;;;8.55;7.95;;;;;;;;;;4986580;28;20034;-77
2022/12/29 15:00:54;;;;;;;9.35;8.65;;;;;;;;;;5002100;28;20455;-77
2022/12/29 15:03:41;;;;;;;9.40;8.57;;;;;;;;;;4992475;28;20046;-78
2022/12/29 15:06:11;;;;;;;9.85;8.82;;;;;;;;;;4988298;28;20045;-77
2022/12/29 15:08:46;;;;;;;14.85;10.50;;;;;;;;;;4997882;28;20104;-77
2022/12/29 15:11:30;;;;;;;8.55;7.75;;;;;;;;;;4994838;28;20045;-77
2022/12/29 15:13:55;;;;;;;27.98;15.25;;;;;;;;;;4991418;28;20099;-79
2022/12/29 15:16:33;;;;;;;11.05;9.75;;;;;;;;;;4995772;28;20136;-78
2022/12/29 15:18:59;;;;;;;9.88;9.07;;;;;;;;;;4994787;28;20117;-78
2022/12/29 15:21:34;;;;;;;9.40;8.70;;;;;;;;;;4987442;28;20542;-77
2022/12/29 15:24:00;;;;;;;13.55;10.10;;;;;;;;;;4998309;28;20128;-79
2022/12/29 15:26:40;;;;;;;10.60;9.48;;;;;;;;;;4993753;28;20029;-79
2022/12/29 15:29:43;;;;;;;9.95;8.40;;;;;;;;;;4992765;28;20550;-78
2022/12/29 15:32:14;;;;;;;11.82;8.98;;;;;;;;;;4996803;28;20089;-77
2022/12/29 15:34:40;;;;;;;8.07;7.53;;;;;;;;;;4995784;28;20126;-78
2022/12/29 15:37:07;;;;;;;8.55;7.85;;;;;;;;;;4994450;28;20692;-76
2022/12/29 15:39:33;;;;;;;10.10;8.85;;;;;;;;;;4997398;28;20073;-77
2022/12/29 15:42:25;;;;;;;7.97;7.38;;;;;;;;;;4990959;28;20057;-79
2022/12/29 15:44:51;;;;;;;8.80;7.80;;;;;;;;;;4993462;28;20129;-77
2022/12/29 15:47:24;;;;;;;8.07;7.38;;;;;;;;;;5005373;28;20512;-78
2022/12/29 15:49:56;;;;;;;7.68;7.18;;;;;;;;;;4996749;28;20055;-79
2022/12/29 15:52:23;;;;;;;9.88;7.90;;;;;;;;;;4991383;28;20450;-77
2022/12/29 15:54:52;;;;;;;9.52;8.52;;;;;;;;;;4990414;28;20117;-80
2022/12/29 15:57:28;;;;;;;8.65;7.80;;;;;;;;;;4991683;28;20022;-76